sensor_id;sensor_type;location;lat;lon;timestamp;P1;durP1;ratioP1;P2;durP2;ratioP2
48268;SDS011;34088;52.232;5.196;2023-08-24T00:01:10;9.27;;;6.03;;
48268;SDS011;34088;52.232;5.196;2023-08-24T00:03:37;11.75;;;6.55;;
48268;SDS011;34088;52.232;5.196;2023-08-24T00:06:03;8.18;;;6.35;;
48268;SDS011;34088;52.232;5.196;2023-08-24T00:08:28;9.00;;;6.80;;
48268;SDS011;34088;52.232;5.196;2023-08-24T00:10:53;12.27;;;6.95;;
48268;SDS011;34088;52.232;5.196;2023-08-24T00:13:19;11.05;;;6.65;;
48268;SDS011;34088;52.232;5.196;2023-08-24T00:15:45;10.68;;;7.25;;
48268;SDS011;34088;52.232;5.196;2023-08-24T00:18:10;14.15;;;6.97;;
48268;SDS011;34088;52.232;5.196;2023-08-24T00:33:14;11.20;;;7.32;;
48268;SDS011;34088;52.232;5.196;2023-08-24T00:35:40;11.40;;;8.23;;
48268;SDS011;34088;52.232;5.196;2023-08-24T00:38:05;11.93;;;8.10;;
48268;SDS011;34088;52.232;5.196;2023-08-24T00:40:30;13.63;;;8.07;;
48268;SDS011;34088;52.232;5.196;2023-08-24T00:42:57;14.02;;;8.27;;
48268;SDS011;34088;52.232;5.196;2023-08-24T00:45:22;11.93;;;8.75;;
48268;SDS011;34088;52.232;5.196;2023-08-24T00:47:48;12.80;;;7.80;;
48268;SDS011;34088;52.232;5.196;2023-08-24T00:50:13;12.13;;;8.25;;
48268;SDS011;34088;52.232;5.196;2023-08-24T00:52:41;13.27;;;8.15;;
48268;SDS011;34088;52.232;5.196;2023-08-24T00:55:07;14.07;;;8.85;;
48268;SDS011;34088;52.232;5.196;2023-08-24T00:57:33;12.35;;;8.05;;
48268;SDS011;34088;52.232;5.196;2023-08-24T01:00:02;12.80;;;8.60;;
48268;SDS011;34088;52.232;5.196;2023-08-24T01:02:36;11.85;;;8.18;;
48268;SDS011;34088;52.232;5.196;2023-08-24T01:05:02;10.48;;;8.10;;
48268;SDS011;34088;52.232;5.196;2023-08-24T01:07:30;12.02;;;8.27;;
48268;SDS011;34088;52.232;5.196;2023-08-24T01:09:56;12.50;;;8.38;;
48268;SDS011;34088;52.232;5.196;2023-08-24T01:18:11;11.93;;;8.20;;
48268;SDS011;34088;52.232;5.196;2023-08-24T01:20:40;15.88;;;8.35;;
48268;SDS011;34088;52.232;5.196;2023-08-24T01:23:13;17.92;;;8.95;;
48268;SDS011;34088;52.232;5.196;2023-08-24T01:26:02;10.32;;;8.30;;
48268;SDS011;34088;52.232;5.196;2023-08-24T01:28:46;13.90;;;9.43;;
48268;SDS011;34088;52.232;5.196;2023-08-24T01:31:15;13.10;;;9.02;;
48268;SDS011;34088;52.232;5.196;2023-08-24T01:33:42;14.65;;;7.93;;
48268;SDS011;34088;52.232;5.196;2023-08-24T01:36:08;12.75;;;9.25;;
48268;SDS011;34088;52.232;5.196;2023-08-24T01:38:35;14.27;;;9.40;;
48268;SDS011;34088;52.232;5.196;2023-08-24T01:43:38;12.02;;;9.38;;
48268;SDS011;34088;52.232;5.196;2023-08-24T01:46:05;12.73;;;9.27;;
48268;SDS011;34088;52.232;5.196;2023-08-24T01:48:32;15.70;;;9.27;;
48268;SDS011;34088;52.232;5.196;2023-08-24T01:50:58;15.45;;;9.60;;
48268;SDS011;34088;52.232;5.196;2023-08-24T01:53:26;14.93;;;10.02;;
48268;SDS011;34088;52.232;5.196;2023-08-24T01:55:52;13.68;;;10.20;;
48268;SDS011;34088;52.232;5.196;2023-08-24T01:58:18;19.95;;;11.43;;
48268;SDS011;34088;52.232;5.196;2023-08-24T02:00:44;15.73;;;10.68;;
48268;SDS011;34088;52.232;5.196;2023-08-24T02:03:09;20.15;;;11.13;;
48268;SDS011;34088;52.232;5.196;2023-08-24T02:05:34;13.50;;;10.18;;
48268;SDS011;34088;52.232;5.196;2023-08-24T02:08:00;16.30;;;12.20;;
48268;SDS011;34088;52.232;5.196;2023-08-24T02:10:25;15.40;;;10.68;;
48268;SDS011;34088;52.232;5.196;2023-08-24T02:12:51;15.20;;;10.68;;
48268;SDS011;34088;52.232;5.196;2023-08-24T02:15:17;16.30;;;10.70;;
48268;SDS011;34088;52.232;5.196;2023-08-24T02:17:42;15.20;;;11.32;;
48268;SDS011;34088;52.232;5.196;2023-08-24T02:20:07;15.20;;;10.60;;
48268;SDS011;34088;52.232;5.196;2023-08-24T02:22:33;18.67;;;11.80;;
48268;SDS011;34088;52.232;5.196;2023-08-24T02:24:59;15.65;;;12.18;;
48268;SDS011;34088;52.232;5.196;2023-08-24T02:27:26;21.80;;;13.07;;
48268;SDS011;34088;52.232;5.196;2023-08-24T02:29:51;17.55;;;12.75;;
48268;SDS011;34088;52.232;5.196;2023-08-24T02:32:16;15.85;;;11.68;;
48268;SDS011;34088;52.232;5.196;2023-08-24T02:34:42;18.33;;;11.82;;
48268;SDS011;34088;52.232;5.196;2023-08-24T02:37:07;17.77;;;13.10;;
48268;SDS011;34088;52.232;5.196;2023-08-24T02:39:32;19.98;;;13.02;;
48268;SDS011;34088;52.232;5.196;2023-08-24T02:41:57;17.92;;;12.02;;
48268;SDS011;34088;52.232;5.196;2023-08-24T02:44:23;15.57;;;12.68;;
48268;SDS011;34088;52.232;5.196;2023-08-24T02:46:48;20.45;;;12.55;;
48268;SDS011;34088;52.232;5.196;2023-08-24T02:49:14;18.05;;;13.98;;
48268;SDS011;34088;52.232;5.196;2023-08-24T02:51:39;17.40;;;12.40;;
48268;SDS011;34088;52.232;5.196;2023-08-24T02:54:05;17.00;;;11.93;;
48268;SDS011;34088;52.232;5.196;2023-08-24T02:56:31;18.77;;;11.93;;
48268;SDS011;34088;52.232;5.196;2023-08-24T02:58:56;15.95;;;11.95;;
48268;SDS011;34088;52.232;5.196;2023-08-24T03:01:21;17.40;;;13.05;;
48268;SDS011;34088;52.232;5.196;2023-08-24T03:03:47;20.67;;;12.63;;
48268;SDS011;34088;52.232;5.196;2023-08-24T03:06:12;18.90;;;11.90;;
48268;SDS011;34088;52.232;5.196;2023-08-24T03:08:37;16.83;;;11.52;;
48268;SDS011;34088;52.232;5.196;2023-08-24T03:11:03;15.45;;;11.05;;
48268;SDS011;34088;52.232;5.196;2023-08-24T03:13:28;17.33;;;11.57;;
48268;SDS011;34088;52.232;5.196;2023-08-24T03:15:55;14.35;;;11.55;;
48268;SDS011;34088;52.232;5.196;2023-08-24T03:18:20;16.15;;;11.88;;
48268;SDS011;34088;52.232;5.196;2023-08-24T03:20:46;16.40;;;12.13;;
48268;SDS011;34088;52.232;5.196;2023-08-24T03:23:13;19.75;;;11.98;;
48268;SDS011;34088;52.232;5.196;2023-08-24T03:25:39;14.68;;;11.90;;
48268;SDS011;34088;52.232;5.196;2023-08-24T03:28:06;24.27;;;13.07;;
48268;SDS011;34088;52.232;5.196;2023-08-24T03:30:36;16.75;;;12.60;;
48268;SDS011;34088;52.232;5.196;2023-08-24T03:33:02;17.73;;;11.65;;
48268;SDS011;34088;52.232;5.196;2023-08-24T03:35:29;15.90;;;12.40;;
48268;SDS011;34088;52.232;5.196;2023-08-24T03:37:55;16.80;;;12.68;;
48268;SDS011;34088;52.232;5.196;2023-08-24T03:40:21;17.45;;;11.90;;
48268;SDS011;34088;52.232;5.196;2023-08-24T03:42:46;16.05;;;12.32;;
48268;SDS011;34088;52.232;5.196;2023-08-24T03:45:11;15.90;;;12.40;;
48268;SDS011;34088;52.232;5.196;2023-08-24T03:47:37;17.33;;;12.25;;
48268;SDS011;34088;52.232;5.196;2023-08-24T03:50:02;17.30;;;12.38;;
48268;SDS011;34088;52.232;5.196;2023-08-24T03:52:28;18.48;;;12.23;;
48268;SDS011;34088;52.232;5.196;2023-08-24T03:54:53;15.43;;;12.35;;
48268;SDS011;34088;52.232;5.196;2023-08-24T03:57:18;19.92;;;12.77;;
48268;SDS011;34088;52.232;5.196;2023-08-24T03:59:44;18.83;;;12.80;;
48268;SDS011;34088;52.232;5.196;2023-08-24T04:02:09;18.13;;;13.23;;
48268;SDS011;34088;52.232;5.196;2023-08-24T04:04:34;16.25;;;13.07;;
48268;SDS011;34088;52.232;5.196;2023-08-24T04:07:00;19.88;;;13.63;;
48268;SDS011;34088;52.232;5.196;2023-08-24T04:09:27;20.58;;;13.70;;
48268;SDS011;34088;52.232;5.196;2023-08-24T04:11:52;20.77;;;14.38;;
48268;SDS011;34088;52.232;5.196;2023-08-24T04:14:17;19.63;;;14.45;;
48268;SDS011;34088;52.232;5.196;2023-08-24T04:16:42;19.70;;;13.93;;
48268;SDS011;34088;52.232;5.196;2023-08-24T04:19:08;21.42;;;13.70;;
48268;SDS011;34088;52.232;5.196;2023-08-24T04:21:33;17.48;;;13.00;;
48268;SDS011;34088;52.232;5.196;2023-08-24T04:23:59;19.20;;;13.68;;
48268;SDS011;34088;52.232;5.196;2023-08-24T04:26:24;19.15;;;14.40;;
48268;SDS011;34088;52.232;5.196;2023-08-24T04:28:49;18.52;;;14.05;;
48268;SDS011;34088;52.232;5.196;2023-08-24T04:31:15;21.17;;;14.07;;
48268;SDS011;34088;52.232;5.196;2023-08-24T04:33:40;19.08;;;13.38;;
48268;SDS011;34088;52.232;5.196;2023-08-24T04:36:06;18.02;;;13.05;;
48268;SDS011;34088;52.232;5.196;2023-08-24T04:38:31;19.05;;;13.10;;
48268;SDS011;34088;52.232;5.196;2023-08-24T04:40:56;19.63;;;13.40;;
48268;SDS011;34088;52.232;5.196;2023-08-24T04:43:23;16.88;;;13.40;;
48268;SDS011;34088;52.232;5.196;2023-08-24T04:45:49;18.73;;;13.55;;
48268;SDS011;34088;52.232;5.196;2023-08-24T04:48:19;18.20;;;13.30;;
48268;SDS011;34088;52.232;5.196;2023-08-24T04:50:48;13.73;;;12.25;;
48268;SDS011;34088;52.232;5.196;2023-08-24T04:53:15;21.20;;;13.15;;
48268;SDS011;34088;52.232;5.196;2023-08-24T04:55:42;19.60;;;13.00;;
48268;SDS011;34088;52.232;5.196;2023-08-24T04:58:08;19.73;;;13.05;;
48268;SDS011;34088;52.232;5.196;2023-08-24T05:00:34;18.08;;;13.05;;
48268;SDS011;34088;52.232;5.196;2023-08-24T05:03:00;17.77;;;13.77;;
48268;SDS011;34088;52.232;5.196;2023-08-24T05:05:28;17.77;;;13.23;;
48268;SDS011;34088;52.232;5.196;2023-08-24T05:07:54;17.33;;;13.15;;
48268;SDS011;34088;52.232;5.196;2023-08-24T05:10:19;18.23;;;13.40;;
48268;SDS011;34088;52.232;5.196;2023-08-24T05:12:45;17.38;;;13.57;;
48268;SDS011;34088;52.232;5.196;2023-08-24T05:15:10;18.98;;;13.30;;
48268;SDS011;34088;52.232;5.196;2023-08-24T05:17:36;17.00;;;12.88;;
48268;SDS011;34088;52.232;5.196;2023-08-24T05:20:01;18.15;;;13.43;;
48268;SDS011;34088;52.232;5.196;2023-08-24T05:22:27;18.40;;;12.88;;
48268;SDS011;34088;52.232;5.196;2023-08-24T05:24:52;18.88;;;13.23;;
48268;SDS011;34088;52.232;5.196;2023-08-24T05:27:17;20.92;;;13.98;;
48268;SDS011;34088;52.232;5.196;2023-08-24T05:29:43;18.08;;;12.90;;
48268;SDS011;34088;52.232;5.196;2023-08-24T05:32:18;16.60;;;13.43;;
48268;SDS011;34088;52.232;5.196;2023-08-24T05:34:44;18.70;;;13.45;;
48268;SDS011;34088;52.232;5.196;2023-08-24T05:37:11;17.77;;;13.23;;
48268;SDS011;34088;52.232;5.196;2023-08-24T05:39:36;19.70;;;13.38;;
48268;SDS011;34088;52.232;5.196;2023-08-24T05:42:02;19.98;;;13.48;;
48268;SDS011;34088;52.232;5.196;2023-08-24T05:44:27;23.50;;;13.85;;
48268;SDS011;34088;52.232;5.196;2023-08-24T05:46:52;21.13;;;13.20;;
48268;SDS011;34088;52.232;5.196;2023-08-24T05:49:18;18.23;;;12.95;;
48268;SDS011;34088;52.232;5.196;2023-08-24T05:51:43;18.10;;;13.20;;
48268;SDS011;34088;52.232;5.196;2023-08-24T05:54:08;19.42;;;12.57;;
48268;SDS011;34088;52.232;5.196;2023-08-24T05:56:34;16.45;;;12.65;;
48268;SDS011;34088;52.232;5.196;2023-08-24T05:58:59;17.70;;;12.55;;
48268;SDS011;34088;52.232;5.196;2023-08-24T06:01:24;18.02;;;12.32;;
48268;SDS011;34088;52.232;5.196;2023-08-24T06:03:50;15.52;;;11.85;;
48268;SDS011;34088;52.232;5.196;2023-08-24T06:06:16;17.73;;;12.40;;
48268;SDS011;34088;52.232;5.196;2023-08-24T06:08:41;20.80;;;11.98;;
48268;SDS011;34088;52.232;5.196;2023-08-24T06:11:07;15.82;;;11.98;;
48268;SDS011;34088;52.232;5.196;2023-08-24T06:13:32;15.85;;;11.65;;
48268;SDS011;34088;52.232;5.196;2023-08-24T06:15:58;16.30;;;11.65;;
48268;SDS011;34088;52.232;5.196;2023-08-24T06:18:23;16.45;;;11.88;;
48268;SDS011;34088;52.232;5.196;2023-08-24T06:20:49;16.48;;;11.98;;
48268;SDS011;34088;52.232;5.196;2023-08-24T06:23:16;17.73;;;12.13;;
48268;SDS011;34088;52.232;5.196;2023-08-24T06:25:42;15.05;;;11.88;;
48268;SDS011;34088;52.232;5.196;2023-08-24T06:28:07;20.83;;;12.38;;
48268;SDS011;34088;52.232;5.196;2023-08-24T06:30:36;15.10;;;11.98;;
48268;SDS011;34088;52.232;5.196;2023-08-24T06:33:05;14.45;;;11.52;;
48268;SDS011;34088;52.232;5.196;2023-08-24T06:35:32;16.77;;;12.07;;
48268;SDS011;34088;52.232;5.196;2023-08-24T06:38:00;17.73;;;12.68;;
48268;SDS011;34088;52.232;5.196;2023-08-24T06:40:26;21.52;;;12.55;;
48268;SDS011;34088;52.232;5.196;2023-08-24T06:42:52;15.27;;;12.15;;
48268;SDS011;34088;52.232;5.196;2023-08-24T06:45:17;13.73;;;11.25;;
48268;SDS011;34088;52.232;5.196;2023-08-24T06:47:43;16.38;;;12.27;;
48268;SDS011;34088;52.232;5.196;2023-08-24T06:50:09;18.05;;;12.82;;
48268;SDS011;34088;52.232;5.196;2023-08-24T06:52:34;18.20;;;12.07;;
48268;SDS011;34088;52.232;5.196;2023-08-24T06:55:00;17.02;;;12.77;;
48268;SDS011;34088;52.232;5.196;2023-08-24T06:57:25;19.40;;;12.77;;
48268;SDS011;34088;52.232;5.196;2023-08-24T06:59:51;19.60;;;12.65;;
48268;SDS011;34088;52.232;5.196;2023-08-24T07:02:16;18.20;;;13.30;;
48268;SDS011;34088;52.232;5.196;2023-08-24T07:04:43;18.25;;;13.50;;
48268;SDS011;34088;52.232;5.196;2023-08-24T07:07:08;19.40;;;13.10;;
48268;SDS011;34088;52.232;5.196;2023-08-24T07:09:34;15.95;;;12.05;;
48268;SDS011;34088;52.232;5.196;2023-08-24T07:12:00;18.05;;;13.10;;
48268;SDS011;34088;52.232;5.196;2023-08-24T07:14:26;17.48;;;12.27;;
48268;SDS011;34088;52.232;5.196;2023-08-24T07:16:51;18.15;;;13.32;;
48268;SDS011;34088;52.232;5.196;2023-08-24T07:19:17;19.90;;;14.15;;
48268;SDS011;34088;52.232;5.196;2023-08-24T07:21:42;16.33;;;13.43;;
48268;SDS011;34088;52.232;5.196;2023-08-24T07:24:08;18.63;;;13.32;;
48268;SDS011;34088;52.232;5.196;2023-08-24T07:26:33;20.58;;;13.02;;
48268;SDS011;34088;52.232;5.196;2023-08-24T07:28:59;17.30;;;12.70;;
48268;SDS011;34088;52.232;5.196;2023-08-24T07:31:24;20.00;;;13.75;;
48268;SDS011;34088;52.232;5.196;2023-08-24T07:33:50;23.30;;;13.73;;
48268;SDS011;34088;52.232;5.196;2023-08-24T07:36:15;18.85;;;12.98;;
48268;SDS011;34088;52.232;5.196;2023-08-24T07:38:40;18.15;;;13.88;;
48268;SDS011;34088;52.232;5.196;2023-08-24T07:41:06;19.48;;;13.43;;
48268;SDS011;34088;52.232;5.196;2023-08-24T07:43:31;17.05;;;13.32;;
48268;SDS011;34088;52.232;5.196;2023-08-24T07:45:57;22.05;;;13.35;;
48268;SDS011;34088;52.232;5.196;2023-08-24T07:48:23;18.75;;;14.02;;
48268;SDS011;34088;52.232;5.196;2023-08-24T07:50:48;19.98;;;13.10;;
48268;SDS011;34088;52.232;5.196;2023-08-24T07:53:14;16.55;;;13.48;;
48268;SDS011;34088;52.232;5.196;2023-08-24T07:55:39;18.52;;;14.32;;
48268;SDS011;34088;52.232;5.196;2023-08-24T07:58:04;19.15;;;14.00;;
48268;SDS011;34088;52.232;5.196;2023-08-24T08:00:30;16.80;;;13.50;;
48268;SDS011;34088;52.232;5.196;2023-08-24T08:02:55;17.35;;;14.13;;
48268;SDS011;34088;52.232;5.196;2023-08-24T08:05:21;17.25;;;13.57;;
48268;SDS011;34088;52.232;5.196;2023-08-24T08:07:47;18.75;;;13.48;;
48268;SDS011;34088;52.232;5.196;2023-08-24T08:10:13;16.10;;;12.82;;
48268;SDS011;34088;52.232;5.196;2023-08-24T08:12:38;18.52;;;13.77;;
48268;SDS011;34088;52.232;5.196;2023-08-24T08:15:04;17.00;;;12.68;;
48268;SDS011;34088;52.232;5.196;2023-08-24T08:17:29;20.58;;;12.88;;
48268;SDS011;34088;52.232;5.196;2023-08-24T08:19:55;17.55;;;12.80;;
48268;SDS011;34088;52.232;5.196;2023-08-24T08:22:21;15.52;;;12.60;;
48268;SDS011;34088;52.232;5.196;2023-08-24T08:24:46;15.98;;;12.43;;
48268;SDS011;34088;52.232;5.196;2023-08-24T08:27:12;16.33;;;12.40;;
48268;SDS011;34088;52.232;5.196;2023-08-24T08:29:37;16.42;;;12.30;;
48268;SDS011;34088;52.232;5.196;2023-08-24T08:32:02;15.75;;;11.82;;
48268;SDS011;34088;52.232;5.196;2023-08-24T08:34:30;14.38;;;10.85;;
48268;SDS011;34088;52.232;5.196;2023-08-24T08:36:55;14.23;;;10.68;;
48268;SDS011;34088;52.232;5.196;2023-08-24T08:39:21;15.75;;;11.18;;
48268;SDS011;34088;52.232;5.196;2023-08-24T08:41:46;13.80;;;11.60;;
48268;SDS011;34088;52.232;5.196;2023-08-24T08:44:13;18.27;;;11.63;;
48268;SDS011;34088;52.232;5.196;2023-08-24T08:46:40;14.07;;;10.63;;
48268;SDS011;34088;52.232;5.196;2023-08-24T08:49:06;16.85;;;11.70;;
48268;SDS011;34088;52.232;5.196;2023-08-24T08:51:33;15.77;;;11.48;;
48268;SDS011;34088;52.232;5.196;2023-08-24T08:54:00;18.55;;;13.13;;
48268;SDS011;34088;52.232;5.196;2023-08-24T08:56:26;15.77;;;11.77;;
48268;SDS011;34088;52.232;5.196;2023-08-24T08:58:51;16.30;;;10.98;;
48268;SDS011;34088;52.232;5.196;2023-08-24T09:01:20;15.45;;;11.68;;
48268;SDS011;34088;52.232;5.196;2023-08-24T09:03:45;14.30;;;11.85;;
48268;SDS011;34088;52.232;5.196;2023-08-24T09:06:11;15.68;;;11.70;;
48268;SDS011;34088;52.232;5.196;2023-08-24T09:08:36;14.77;;;10.85;;
48268;SDS011;34088;52.232;5.196;2023-08-24T09:11:03;16.30;;;11.07;;
48268;SDS011;34088;52.232;5.196;2023-08-24T09:13:28;15.85;;;11.43;;
48268;SDS011;34088;52.232;5.196;2023-08-24T09:15:54;15.73;;;12.43;;
48268;SDS011;34088;52.232;5.196;2023-08-24T09:18:38;14.20;;;10.70;;
48268;SDS011;34088;52.232;5.196;2023-08-24T09:21:11;17.08;;;11.98;;
48268;SDS011;34088;52.232;5.196;2023-08-24T09:23:38;16.23;;;11.10;;
48268;SDS011;34088;52.232;5.196;2023-08-24T09:26:07;13.40;;;10.90;;
48268;SDS011;34088;52.232;5.196;2023-08-24T09:28:33;15.93;;;11.38;;
48268;SDS011;34088;52.232;5.196;2023-08-24T09:30:59;14.45;;;10.85;;
48268;SDS011;34088;52.232;5.196;2023-08-24T09:33:26;13.52;;;10.65;;
48268;SDS011;34088;52.232;5.196;2023-08-24T09:35:54;15.98;;;10.50;;
48268;SDS011;34088;52.232;5.196;2023-08-24T09:38:26;13.25;;;9.77;;
48268;SDS011;34088;52.232;5.196;2023-08-24T09:40:52;11.25;;;8.68;;
48268;SDS011;34088;52.232;5.196;2023-08-24T09:43:19;13.57;;;9.30;;
48268;SDS011;34088;52.232;5.196;2023-08-24T09:48:24;15.43;;;9.57;;
48268;SDS011;34088;52.232;5.196;2023-08-24T09:50:50;13.85;;;10.55;;
48268;SDS011;34088;52.232;5.196;2023-08-24T09:58:17;13.27;;;8.43;;
48268;SDS011;34088;52.232;5.196;2023-08-24T10:00:43;12.07;;;8.88;;
48268;SDS011;34088;52.232;5.196;2023-08-24T10:03:13;13.85;;;9.70;;
48268;SDS011;34088;52.232;5.196;2023-08-24T10:05:45;12.13;;;8.20;;
48268;SDS011;34088;52.232;5.196;2023-08-24T10:08:12;13.35;;;8.40;;
48268;SDS011;34088;52.232;5.196;2023-08-24T10:10:39;10.68;;;8.10;;
48268;SDS011;34088;52.232;5.196;2023-08-24T10:13:13;10.70;;;8.35;;
48268;SDS011;34088;52.232;5.196;2023-08-24T10:15:44;11.00;;;7.47;;
48268;SDS011;34088;52.232;5.196;2023-08-24T10:18:11;12.18;;;7.85;;
48268;SDS011;34088;52.232;5.196;2023-08-24T10:20:38;10.65;;;7.63;;
48268;SDS011;34088;52.232;5.196;2023-08-24T10:23:04;11.13;;;7.45;;
48268;SDS011;34088;52.232;5.196;2023-08-24T10:25:30;12.10;;;7.47;;
48268;SDS011;34088;52.232;5.196;2023-08-24T10:27:55;12.57;;;6.97;;
48268;SDS011;34088;52.232;5.196;2023-08-24T10:30:21;9.43;;;6.63;;
48268;SDS011;34088;52.232;5.196;2023-08-24T10:32:48;13.23;;;7.10;;
48268;SDS011;34088;52.232;5.196;2023-08-24T10:35:18;9.45;;;7.10;;
48268;SDS011;34088;52.232;5.196;2023-08-24T10:37:44;11.18;;;7.38;;
48268;SDS011;34088;52.232;5.196;2023-08-24T10:40:11;12.30;;;6.75;;
48268;SDS011;34088;52.232;5.196;2023-08-24T10:42:44;12.10;;;6.55;;
48268;SDS011;34088;52.232;5.196;2023-08-24T10:45:11;10.48;;;6.90;;
48268;SDS011;34088;52.232;5.196;2023-08-24T10:47:43;9.60;;;6.47;;
48268;SDS011;34088;52.232;5.196;2023-08-24T10:50:10;10.65;;;6.45;;
48268;SDS011;34088;52.232;5.196;2023-08-24T10:52:37;12.25;;;7.05;;
48268;SDS011;34088;52.232;5.196;2023-08-24T10:55:04;12.80;;;6.78;;
48268;SDS011;34088;52.232;5.196;2023-08-24T10:57:46;10.77;;;6.80;;
48268;SDS011;34088;52.232;5.196;2023-08-24T11:00:20;11.68;;;6.93;;
48268;SDS011;34088;52.232;5.196;2023-08-24T11:02:48;12.85;;;7.47;;
48268;SDS011;34088;52.232;5.196;2023-08-24T11:07:50;8.35;;;7.03;;
48268;SDS011;34088;52.232;5.196;2023-08-24T11:13:07;12.00;;;7.55;;
48268;SDS011;34088;52.232;5.196;2023-08-24T11:15:38;13.60;;;7.90;;
48268;SDS011;34088;52.232;5.196;2023-08-24T11:20:51;10.52;;;7.93;;
48268;SDS011;34088;52.232;5.196;2023-08-24T11:23:18;11.23;;;8.00;;
48268;SDS011;34088;52.232;5.196;2023-08-24T11:25:45;14.27;;;8.10;;
48268;SDS011;34088;52.232;5.196;2023-08-24T11:28:16;15.68;;;8.50;;
48268;SDS011;34088;52.232;5.196;2023-08-24T11:30:43;11.68;;;8.35;;
48268;SDS011;34088;52.232;5.196;2023-08-24T11:33:09;12.45;;;8.40;;
48268;SDS011;34088;52.232;5.196;2023-08-24T11:35:36;14.57;;;9.43;;
48268;SDS011;34088;52.232;5.196;2023-08-24T11:38:02;16.30;;;9.70;;
48268;SDS011;34088;52.232;5.196;2023-08-24T11:40:27;13.85;;;9.00;;
48268;SDS011;34088;52.232;5.196;2023-08-24T11:42:54;13.77;;;9.40;;
48268;SDS011;34088;52.232;5.196;2023-08-24T11:45:20;15.63;;;9.82;;
48268;SDS011;34088;52.232;5.196;2023-08-24T11:47:46;12.95;;;9.52;;
48268;SDS011;34088;52.232;5.196;2023-08-24T11:50:11;15.10;;;9.48;;
48268;SDS011;34088;52.232;5.196;2023-08-24T11:52:41;13.18;;;9.15;;
48268;SDS011;34088;52.232;5.196;2023-08-24T11:55:07;15.38;;;9.32;;
48268;SDS011;34088;52.232;5.196;2023-08-24T11:57:34;13.07;;;9.52;;
48268;SDS011;34088;52.232;5.196;2023-08-24T11:59:59;13.45;;;9.73;;
48268;SDS011;34088;52.232;5.196;2023-08-24T12:02:26;17.67;;;13.25;;
48268;SDS011;34088;52.232;5.196;2023-08-24T12:04:52;19.70;;;16.70;;
48268;SDS011;34088;52.232;5.196;2023-08-24T12:07:17;22.83;;;15.45;;
48268;SDS011;34088;52.232;5.196;2023-08-24T12:09:46;19.13;;;14.27;;
48268;SDS011;34088;52.232;5.196;2023-08-24T12:12:15;18.73;;;13.73;;
48268;SDS011;34088;52.232;5.196;2023-08-24T12:14:44;15.63;;;13.40;;
48268;SDS011;34088;52.232;5.196;2023-08-24T12:17:11;17.38;;;12.82;;
48268;SDS011;34088;52.232;5.196;2023-08-24T12:19:40;18.80;;;13.55;;
48268;SDS011;34088;52.232;5.196;2023-08-24T12:22:07;19.92;;;16.23;;
48268;SDS011;34088;52.232;5.196;2023-08-24T12:24:34;20.02;;;15.85;;
48268;SDS011;34088;52.232;5.196;2023-08-24T12:26:59;21.85;;;16.80;;
48268;SDS011;34088;52.232;5.196;2023-08-24T12:29:26;20.60;;;17.20;;
48268;SDS011;34088;52.232;5.196;2023-08-24T12:31:52;23.63;;;18.80;;
48268;SDS011;34088;52.232;5.196;2023-08-24T12:34:22;21.27;;;17.33;;
48268;SDS011;34088;52.232;5.196;2023-08-24T12:36:47;20.90;;;17.58;;
48268;SDS011;34088;52.232;5.196;2023-08-24T12:39:12;21.98;;;16.73;;
48268;SDS011;34088;52.232;5.196;2023-08-24T12:41:38;23.27;;;16.58;;
48268;SDS011;34088;52.232;5.196;2023-08-24T12:44:03;22.10;;;16.95;;
48268;SDS011;34088;52.232;5.196;2023-08-24T12:46:37;20.17;;;16.63;;
48268;SDS011;34088;52.232;5.196;2023-08-24T12:49:03;20.15;;;17.38;;
48268;SDS011;34088;52.232;5.196;2023-08-24T12:51:29;19.15;;;16.75;;
48268;SDS011;34088;52.232;5.196;2023-08-24T12:53:54;21.50;;;16.42;;
48268;SDS011;34088;52.232;5.196;2023-08-24T12:56:19;20.17;;;16.63;;
48268;SDS011;34088;52.232;5.196;2023-08-24T12:58:45;19.92;;;16.77;;
48268;SDS011;34088;52.232;5.196;2023-08-24T13:01:13;20.27;;;16.20;;
48268;SDS011;34088;52.232;5.196;2023-08-24T13:03:38;18.15;;;15.90;;
48268;SDS011;34088;52.232;5.196;2023-08-24T13:06:04;23.10;;;16.30;;
48268;SDS011;34088;52.232;5.196;2023-08-24T13:08:30;18.63;;;14.98;;
48268;SDS011;34088;52.232;5.196;2023-08-24T13:10:56;24.17;;;16.73;;
48268;SDS011;34088;52.232;5.196;2023-08-24T13:13:21;18.75;;;15.18;;
48268;SDS011;34088;52.232;5.196;2023-08-24T13:15:48;22.95;;;16.50;;
48268;SDS011;34088;52.232;5.196;2023-08-24T13:18:15;19.38;;;15.52;;
48268;SDS011;34088;52.232;5.196;2023-08-24T13:20:41;19.60;;;15.13;;
48268;SDS011;34088;52.232;5.196;2023-08-24T13:23:06;17.08;;;15.05;;
48268;SDS011;34088;52.232;5.196;2023-08-24T13:25:31;21.98;;;14.30;;
48268;SDS011;34088;52.232;5.196;2023-08-24T13:27:57;19.33;;;15.00;;
48268;SDS011;34088;52.232;5.196;2023-08-24T13:30:22;17.75;;;14.55;;
48268;SDS011;34088;52.232;5.196;2023-08-24T13:32:47;17.50;;;14.18;;
48268;SDS011;34088;52.232;5.196;2023-08-24T13:35:12;19.33;;;14.23;;
48268;SDS011;34088;52.232;5.196;2023-08-24T13:37:38;17.58;;;14.93;;
48268;SDS011;34088;52.232;5.196;2023-08-24T13:40:04;18.27;;;14.27;;
48268;SDS011;34088;52.232;5.196;2023-08-24T13:42:30;16.77;;;14.23;;
48268;SDS011;34088;52.232;5.196;2023-08-24T13:44:55;17.10;;;13.80;;
48268;SDS011;34088;52.232;5.196;2023-08-24T13:47:20;18.73;;;14.80;;
48268;SDS011;34088;52.232;5.196;2023-08-24T13:49:46;18.92;;;16.00;;
48268;SDS011;34088;52.232;5.196;2023-08-24T13:52:12;20.25;;;15.43;;
48268;SDS011;34088;52.232;5.196;2023-08-24T13:54:37;19.60;;;15.20;;
48268;SDS011;34088;52.232;5.196;2023-08-24T13:57:03;19.20;;;14.45;;
48268;SDS011;34088;52.232;5.196;2023-08-24T13:59:28;18.63;;;15.68;;
48268;SDS011;34088;52.232;5.196;2023-08-24T14:01:54;20.67;;;16.23;;
48268;SDS011;34088;52.232;5.196;2023-08-24T14:04:19;18.55;;;16.55;;
48268;SDS011;34088;52.232;5.196;2023-08-24T14:06:44;17.13;;;14.93;;
48268;SDS011;34088;52.232;5.196;2023-08-24T14:09:10;18.13;;;15.63;;
48268;SDS011;34088;52.232;5.196;2023-08-24T14:11:35;21.05;;;16.50;;
48268;SDS011;34088;52.232;5.196;2023-08-24T14:14:00;17.70;;;15.55;;
48268;SDS011;34088;52.232;5.196;2023-08-24T14:16:26;19.08;;;15.93;;
48268;SDS011;34088;52.232;5.196;2023-08-24T14:18:51;20.35;;;17.00;;
48268;SDS011;34088;52.232;5.196;2023-08-24T14:21:17;19.75;;;16.33;;
48268;SDS011;34088;52.232;5.196;2023-08-24T14:23:43;22.13;;;16.58;;
48268;SDS011;34088;52.232;5.196;2023-08-24T14:26:08;23.08;;;18.05;;
48268;SDS011;34088;52.232;5.196;2023-08-24T14:29:08;18.98;;;16.98;;
48268;SDS011;34088;52.232;5.196;2023-08-24T14:31:27;23.17;;;17.05;;
48268;SDS011;34088;52.232;5.196;2023-08-24T14:33:54;19.65;;;17.08;;
48268;SDS011;34088;52.232;5.196;2023-08-24T14:36:19;19.95;;;17.48;;
48268;SDS011;34088;52.232;5.196;2023-08-24T14:38:45;20.75;;;17.40;;
48268;SDS011;34088;52.232;5.196;2023-08-24T14:41:12;19.55;;;17.52;;
48268;SDS011;34088;52.232;5.196;2023-08-24T14:43:38;18.95;;;16.83;;
48268;SDS011;34088;52.232;5.196;2023-08-24T14:46:04;20.63;;;16.45;;
48268;SDS011;34088;52.232;5.196;2023-08-24T14:48:30;20.25;;;16.75;;
48268;SDS011;34088;52.232;5.196;2023-08-24T14:50:56;20.30;;;17.70;;
48268;SDS011;34088;52.232;5.196;2023-08-24T14:53:22;19.20;;;16.65;;
48268;SDS011;34088;52.232;5.196;2023-08-24T14:55:48;20.70;;;17.50;;
48268;SDS011;34088;52.232;5.196;2023-08-24T14:58:13;21.77;;;17.08;;